Time;durP1;ratioP1;P1;durP2;ratioP2;P2;SDS_P1;SDS_P2;PMS_P1;PMS_P2;Temp;Humidity;BMP_temperature;BMP_pressure;BME280_temperature;BME280_humidity;BME280_pressure;Samples;Min_cycle;Max_cycle;Signal;HPM_P1;HPM_P2
2022/10/19 00:01:07;;;;;;;7.45;2.83;;;;;;;8.24;100.00;102720.91;4961790;28;20096;-92
2022/10/19 00:03:35;;;;;;;7.65;2.63;;;;;;;7.74;100.00;102654.59;4959290;28;20082;-92
2022/10/19 00:06:15;;;;;;;8.25;2.30;;;;;;;8.09;100.00;102716.47;4970260;28;20047;-92
2022/10/19 00:08:43;;;;;;;7.60;3.08;;;;;;;7.98;100.00;102690.34;4975175;28;20194;-92
2022/10/19 00:11:11;;;;;;;9.32;2.58;;;;;;;8.13;100.00;102713.91;4974633;28;20073;-91
2022/10/19 00:13:37;;;;;;;7.90;3.05;;;;;;;8.03;100.00;102701.66;4975330;28;20597;-92
2022/10/19 00:16:14;;;;;;;8.57;2.75;;;;;;;7.83;100.00;102678.13;4958919;28;20086;-92
2022/10/19 00:18:42;;;;;;;9.50;2.53;;;;;;;7.74;100.00;102694.59;4974565;28;20120;-92
2022/10/19 00:21:11;;;;;;;9.43;2.88;;;;;;;7.89;100.00;102706.81;4974195;28;20062;-92
2022/10/19 00:23:38;;;;;;;8.20;2.55;;;;;;;8.10;100.00;102711.25;4959363;28;20452;-92
2022/10/19 00:26:05;;;;;;;6.95;2.40;;;;;;;7.83;100.00;102678.13;4958496;28;20061;-92
2022/10/19 00:28:32;;;;;;;7.93;2.40;;;;;;;7.95;100.00;102717.28;4986412;28;20047;-92
2022/10/19 00:31:09;;;;;;;8.73;2.90;;;;;;;8.00;100.00;102688.59;4944710;28;20051;-91
2022/10/19 00:33:36;;;;;;;6.80;2.40;;;;;;;8.15;100.00;102708.69;4951684;28;20050;-91
2022/10/19 00:36:03;;;;;;;9.65;2.30;;;;;;;7.87;100.00;102669.44;4980512;28;20051;-91
2022/10/19 00:38:30;;;;;;;7.30;2.22;;;;;;;8.00;100.00;102686.00;4961971;28;20047;-91
2022/10/19 00:40:57;;;;;;;7.32;2.47;;;;;;;7.97;100.00;102699.91;4974262;28;20102;-91
2022/10/19 00:43:29;;;;;;;7.90;2.55;;;;;;;7.96;100.00;102715.56;4960270;28;20467;-91
2022/10/19 00:45:56;;;;;;;6.38;2.60;;;;;;;7.80;100.00;102702.41;4975489;28;20478;-91
2022/10/19 00:48:30;;;;;;;5.55;2.00;;;;;;;7.94;100.00;102686.84;4958141;28;20548;-91
2022/10/19 00:50:59;;;;;;;10.02;2.70;;;;;;;7.87;100.00;102681.59;4969688;28;20062;-91
2022/10/19 00:53:28;;;;;;;9.30;2.58;;;;;;;8.09;100.00;102693.88;4954756;28;20051;-92
2022/10/19 00:55:56;;;;;;;8.13;2.60;;;;;;;8.36;100.00;102716.59;4974475;28;20055;-91
2022/10/19 00:58:23;;;;;;;5.22;1.83;;;;;;;8.24;100.00;102687.84;4963537;28;20047;-92
2022/10/19 01:00:50;;;;;;;8.32;2.50;;;;;;;8.30;100.00;102666.09;4955943;28;20054;-91
2022/10/19 01:03:17;;;;;;;9.35;2.17;;;;;;;8.61;100.00;102710.63;4957772;28;20553;-90
2022/10/19 01:05:43;;;;;;;9.20;1.88;;;;;;;8.52;100.00;102695.78;4973798;28;20624;-91
2022/10/19 01:08:11;;;;;;;6.57;2.28;;;;;;;8.43;100.00;102673.16;4972713;28;20054;-92
2022/10/19 01:10:46;;;;;;;5.40;1.98;;;;;;;8.76;100.00;102692.34;4955365;28;20102;-91
2022/10/19 01:13:42;;;;;;;4.60;1.75;;;;;;;8.71;100.00;102694.97;4982377;28;20105;-92
2022/10/19 01:16:17;;;;;;;4.65;1.63;;;;;;;8.48;100.00;102688.81;4943345;29;20043;-91
2022/10/19 01:18:55;;;;;;;7.57;2.22;;;;;;;8.28;100.00;102679.16;4989573;28;20579;-92
2022/10/19 01:21:36;;;;;;;9.13;2.55;;;;;;;8.41;100.00;102660.91;4954632;28;20055;-92
2022/10/19 01:24:31;;;;;;;12.55;2.60;;;;;;;8.91;100.00;102694.97;4958534;28;20051;-92
2022/10/19 01:27:21;;;;;;;5.97;2.05;;;;;;;8.96;100.00;102687.16;4964205;28;20051;-92
2022/10/19 01:30:09;;;;;;;8.75;2.33;;;;;;;8.96;100.00;102681.94;4944484;28;20054;-92
2022/10/19 01:32:49;;;;;;;8.52;2.70;;;;;;;8.84;100.00;102661.88;4970910;28;20051;-92
2022/10/19 01:35:24;;;;;;;6.40;2.45;;;;;;;8.96;100.00;102670.56;4962865;28;20054;-92
2022/10/19 01:38:04;;;;;;;10.27;2.30;;;;;;;8.64;100.00;102668.81;4958080;28;20119;-92
2022/10/19 01:41:17;;;;;;;7.20;2.30;;;;;;;8.69;100.00;102661.84;4986250;28;20051;-92
2022/10/19 01:43:49;;;;;;;8.60;3.17;;;;;;;8.62;100.00;102670.56;4959171;28;20047;-91
2022/10/19 01:46:40;;;;;;;7.40;2.10;;;;;;;8.80;100.00;102665.38;4967464;28;20094;-93
2022/10/19 01:49:36;;;;;;;9.02;2.42;;;;;;;8.74;100.00;102645.31;4957954;28;20070;-93
2022/10/19 01:52:06;;;;;;;7.28;2.22;;;;;;;8.91;100.00;102657.53;4947380;28;20050;-92
2022/10/19 01:54:38;;;;;;;5.18;1.90;;;;;;;9.14;100.00;102660.13;4974725;28;20050;-92
2022/10/19 01:57:08;;;;;;;5.80;1.90;;;;;;;9.40;100.00;102664.44;4973899;28;20121;-92
2022/10/19 01:59:36;;;;;;;8.70;2.55;;;;;;;9.42;100.00;102653.13;4967065;28;20089;-92
2022/10/19 02:02:05;;;;;;;9.50;2.40;;;;;;;9.50;100.00;102640.88;4956345;28;20051;-92
2022/10/19 02:04:33;;;;;;;9.18;2.58;;;;;;;9.60;100.00;102649.59;4973931;28;20219;-92
2022/10/19 02:07:01;;;;;;;6.32;1.90;;;;;;;9.56;100.00;102647.88;4969438;28;20059;-92
2022/10/19 02:09:29;;;;;;;7.13;2.25;;;;;;;9.44;100.00;102606.06;4975520;28;20473;-91
2022/10/19 02:11:58;;;;;;;7.07;1.80;;;;;;;9.76;100.00;102667.84;4956673;28;20050;-92
2022/10/19 02:14:30;;;;;;;7.85;2.58;;;;;;;9.63;100.00;102661.78;4973919;28;20048;-91
2022/10/19 02:17:24;;;;;;;6.07;2.10;;;;;;;9.78;100.00;102673.97;4961541;28;20385;-92
2022/10/19 02:19:52;;;;;;;11.07;2.40;;;;;;;9.50;100.00;102634.78;4962322;28;20042;-92
2022/10/19 02:22:20;;;;;;;7.53;2.20;;;;;;;9.68;100.00;102665.25;4965881;28;20055;-92
2022/10/19 02:24:47;;;;;;;8.13;1.73;;;;;;;9.62;100.00;102626.06;4958146;28;20055;-92
2022/10/19 02:27:13;;;;;;;7.20;2.00;;;;;;;10.01;100.00;102668.63;4972952;28;20121;-91
2022/10/19 02:29:40;;;;;;;3.70;1.38;;;;;;;10.00;100.00;102651.16;4959905;28;20510;-92
2022/10/19 02:32:08;;;;;;;4.70;1.40;;;;;;;9.91;100.00;102606.75;4969712;28;20106;-92
2022/10/19 02:34:36;;;;;;;6.00;1.60;;;;;;;10.06;100.00;102606.66;4964578;28;20046;-92
2022/10/19 02:37:03;;;;;;;7.22;1.52;;;;;;;10.18;100.00;102617.06;4963413;28;20055;-92
2022/10/19 02:39:31;;;;;;;4.45;1.08;;;;;;;10.41;100.00;102629.16;4971649;28;20105;-92
2022/10/19 02:42:10;;;;;;;4.38;1.17;;;;;;;10.43;100.00;102607.34;4963139;28;20058;-92
2022/10/19 02:44:55;;;;;;;5.40;1.65;;;;;;;10.73;100.00;102641.16;4972661;28;20791;-92
2022/10/19 02:47:48;;;;;;;6.47;1.13;;;;;;;10.59;100.00;102592.38;4977582;28;20552;-92
2022/10/19 02:50:18;;;;;;;3.55;1.10;;;;;;;10.59;100.00;102591.50;4969194;28;20098;-92
2022/10/19 02:52:44;;;;;;;5.15;1.00;;;;;;;10.50;100.00;102584.59;4970854;28;20054;-92
2022/10/19 02:55:11;;;;;;;5.82;2.10;;;;;;;10.24;100.00;102590.84;4972307;28;20101;-91
2022/10/19 02:57:38;;;;;;;4.63;1.60;;;;;;;10.13;100.00;102610.09;4972799;28;20634;-92
2022/10/19 03:00:09;;;;;;;5.93;1.70;;;;;;;10.33;100.00;102623.13;4973445;28;20457;-92
2022/10/19 03:02:36;;;;;;;5.18;1.80;;;;;;;10.25;100.00;102610.03;4972047;28;20532;-92
2022/10/19 03:05:03;;;;;;;9.02;2.50;;;;;;;9.58;100.00;102590.31;4971450;28;20054;-91
2022/10/19 03:07:30;;;;;;;7.03;1.90;;;;;;;9.78;100.00;102570.16;4971747;28;20053;-92
2022/10/19 03:09:57;;;;;;;7.78;2.10;;;;;;;9.96;100.00;102607.59;4971077;28;20073;-92
2022/10/19 03:12:24;;;;;;;8.18;1.60;;;;;;;9.92;100.00;102603.25;4971836;28;20057;-91
2022/10/19 03:14:51;;;;;;;4.80;1.70;;;;;;;9.91;100.00;102599.75;4971664;28;20058;-91
2022/10/19 03:17:18;;;;;;;6.25;1.60;;;;;;;9.85;100.00;102584.09;4958741;28;20050;-91
2022/10/19 03:19:45;;;;;;;5.68;1.58;;;;;;;9.86;100.00;102575.34;4962335;28;20098;-92
2022/10/19 03:22:13;;;;;;;6.20;1.70;;;;;;;9.79;100.00;102576.25;4979657;28;20457;-92
2022/10/19 03:24:40;;;;;;;4.38;1.45;;;;;;;9.80;100.00;102578.88;4978760;28;20066;-91
2022/10/19 03:27:07;;;;;;;7.57;1.48;;;;;;;9.72;100.00;102569.31;4978379;28;20117;-91
2022/10/19 03:29:33;;;;;;;3.50;1.30;;;;;;;9.82;100.00;102586.72;4976845;28;20051;-92
2022/10/19 03:32:00;;;;;;;5.57;1.42;;;;;;;9.43;100.00;102559.88;4976313;28;20449;-92
2022/10/19 03:34:27;;;;;;;6.35;1.45;;;;;;;9.27;100.00;102577.34;4959861;28;20096;-91
2022/10/19 03:36:55;;;;;;;3.78;1.38;;;;;;;8.97;100.00;102537.34;4977103;28;20054;-91
2022/10/19 03:39:22;;;;;;;4.18;1.10;;;;;;;8.90;100.00;102536.47;4978305;28;20046;-92
2022/10/19 03:41:49;;;;;;;3.92;1.52;;;;;;;9.08;100.00;102555.59;4964321;28;20077;-91
2022/10/19 03:44:16;;;;;;;4.43;1.63;;;;;;;9.31;100.00;102590.41;4979231;28;20046;-92
2022/10/19 03:50:25;;;;;;;4.90;1.30;;;;;;;9.74;100.00;102572.78;4980042;28;20069;-92
2022/10/19 03:52:54;;;;;;;4.80;1.40;;;;;;;9.77;100.00;102567.56;4957160;28;20118;-91
2022/10/19 03:55:20;;;;;;;5.32;1.52;;;;;;;9.69;100.00;102573.69;4959560;28;20166;-92
2022/10/19 03:57:47;;;;;;;3.45;1.27;;;;;;;9.43;100.00;102576.41;4984108;28;20055;-91
2022/10/19 04:00:14;;;;;;;4.20;1.50;;;;;;;9.36;100.00;102571.22;4954850;28;20039;-92
2022/10/19 04:02:41;;;;;;;4.55;1.35;;;;;;;9.40;100.00;102560.75;4978536;28;20043;-91
2022/10/19 04:05:07;;;;;;;3.88;1.10;;;;;;;9.41;100.00;102551.16;4961781;28;20054;-91
2022/10/19 04:07:34;;;;;;;3.67;1.00;;;;;;;9.36;100.00;102564.22;4946704;28;20054;-92
2022/10/19 04:10:01;;;;;;;4.82;1.20;;;;;;;9.46;100.00;102578.16;4974493;28;20055;-92
2022/10/19 04:12:28;;;;;;;2.47;1.05;;;;;;;9.58;100.00;102578.13;4956922;28;20129;-92
2022/10/19 04:14:54;;;;;;;4.00;1.50;;;;;;;9.74;100.00;102551.88;4963121;28;20128;-91
2022/10/19 04:17:24;;;;;;;5.88;1.30;;;;;;;9.92;100.00;102571.88;4962133;28;20062;-92
2022/10/19 04:19:51;;;;;;;5.85;1.60;;;;;;;9.88;100.00;102574.50;4960218;28;20046;-92
2022/10/19 04:22:17;;;;;;;4.85;1.33;;;;;;;9.98;100.00;102591.00;4962548;28;20055;-92
2022/10/19 04:24:44;;;;;;;2.92;1.00;;;;;;;9.80;100.00;102565.78;4978688;28;20109;-92
2022/10/19 04:27:10;;;;;;;3.78;1.30;;;;;;;9.70;100.00;102579.78;4962448;28;20452;-92
2022/10/19 04:29:37;;;;;;;4.43;1.40;;;;;;;9.74;100.00;102605.09;4960599;28;20051;-91
2022/10/19 04:32:04;;;;;;;5.28;1.27;;;;;;;9.52;100.00;102557.19;4969820;28;20068;-90
2022/10/19 04:34:31;;;;;;;3.53;1.17;;;;;;;9.62;100.00;102569.38;4959532;28;20050;-90
2022/10/19 04:37:03;;;;;;;4.30;1.15;;;;;;;9.47;100.00;102565.09;4959819;28;20062;-90
2022/10/19 04:39:29;;;;;;;3.53;1.20;;;;;;;9.39;100.00;102555.53;4959706;28;20047;-90
2022/10/19 04:41:56;;;;;;;4.53;1.30;;;;;;;9.31;100.00;102535.50;4959060;28;20489;-90
2022/10/19 04:44:23;;;;;;;6.22;1.50;;;;;;;9.61;100.00;102548.44;4964932;28;20453;-91
2022/10/19 04:46:49;;;;;;;4.13;1.40;;;;;;;9.62;100.00;102555.44;4958735;28;20058;-90
2022/10/19 04:49:16;;;;;;;3.25;1.10;;;;;;;9.83;100.00;102572.78;4974427;28;20051;-90
2022/10/19 04:51:45;;;;;;;4.40;1.20;;;;;;;9.72;100.00;102549.28;4956451;28;20054;-91
2022/10/19 04:54:12;;;;;;;6.85;1.50;;;;;;;9.73;100.00;102556.25;4959031;28;20054;-91
2022/10/19 04:56:39;;;;;;;9.15;1.55;;;;;;;9.74;100.00;102555.38;4958908;28;20055;-91
2022/10/19 04:59:06;;;;;;;6.78;1.38;;;;;;;9.77;100.00;102564.94;4958865;28;20050;-90
2022/10/19 05:01:33;;;;;;;4.97;1.13;;;;;;;9.66;100.00;102547.53;4972176;28;20058;-91
2022/10/19 05:04:01;;;;;;;10.40;1.90;;;;;;;9.80;100.00;102578.03;4974977;28;20054;-91
2022/10/19 05:06:30;;;;;;;2.72;1.00;;;;;;;9.81;100.00;102572.78;4957475;28;20050;-92
2022/10/19 05:08:58;;;;;;;5.20;1.23;;;;;;;9.50;100.00;102530.19;4974131;28;20101;-91
2022/10/19 05:11:25;;;;;;;3.88;1.50;;;;;;;9.58;100.00;102538.88;4974004;28;20500;-91
2022/10/19 05:13:51;;;;;;;4.43;1.15;;;;;;;9.58;100.00;102544.13;4964041;28;20564;-91
2022/10/19 05:16:21;;;;;;;4.85;1.23;;;;;;;9.63;100.00;102565.91;4963111;28;20047;-91
2022/10/19 05:18:49;;;;;;;3.17;1.10;;;;;;;9.68;100.00;102558.91;4956923;28;20054;-91
2022/10/19 05:21:17;;;;;;;3.47;1.10;;;;;;;9.71;100.00;102558.00;4973732;28;20062;-90
2022/10/19 05:23:44;;;;;;;3.70;1.17;;;;;;;9.62;100.00;102518.81;4958866;28;20386;-91
2022/10/19 05:26:16;;;;;;;3.20;1.10;;;;;;;9.80;100.00;102550.09;4962128;28;20055;-90
2022/10/19 05:28:50;;;;;;;3.70;1.20;;;;;;;9.44;100.00;102488.41;4973523;28;20065;-91
2022/10/19 05:31:19;;;;;;;3.38;1.10;;;;;;;9.82;100.00;102548.34;4966175;28;20055;-91
2022/10/19 05:33:46;;;;;;;3.45;1.30;;;;;;;9.74;100.00;102529.22;4974623;28;20117;-91
2022/10/19 05:36:17;;;;;;;3.38;1.30;;;;;;;9.78;100.00;102536.16;4964166;28;20051;-90
2022/10/19 05:38:46;;;;;;;6.95;1.33;;;;;;;10.08;100.00;102542.09;4972419;28;20493;-90
2022/10/19 05:41:14;;;;;;;5.10;1.50;;;;;;;9.96;100.00;102518.63;4973848;28;20058;-91
2022/10/19 05:43:41;;;;;;;3.28;1.30;;;;;;;10.07;100.00;102525.53;4973204;28;20109;-91
2022/10/19 05:46:13;;;;;;;5.07;1.42;;;;;;;10.13;100.00;102542.94;4957910;28;20105;-91
2022/10/19 05:48:40;;;;;;;4.97;1.60;;;;;;;9.98;100.00;102522.09;4969984;28;20074;-90
2022/10/19 05:51:10;;;;;;;4.13;1.35;;;;;;;10.11;100.00;102518.53;4972659;28;20919;-91
2022/10/19 05:53:38;;;;;;;6.75;1.25;;;;;;;9.95;100.00;102493.31;4960627;28;20343;-91
2022/10/19 05:56:06;;;;;;;5.68;1.30;;;;;;;9.98;100.00;102507.25;4963391;28;20504;-92
2022/10/19 05:58:34;;;;;;;4.10;1.20;;;;;;;10.27;100.00;102521.91;4952382;28;20047;-91
2022/10/19 06:01:02;;;;;;;4.25;1.42;;;;;;;10.11;100.00;102513.28;4973001;28;20049;-92
2022/10/19 06:03:29;;;;;;;3.17;1.25;;;;;;;10.14;100.00;102476.59;4973595;28;20114;-91
2022/10/19 06:05:56;;;;;;;3.03;1.17;;;;;;;10.39;100.00;102518.31;4963109;28;20105;-91
2022/10/19 06:08:25;;;;;;;5.90;1.33;;;;;;;10.34;100.00;102514.88;4959943;28;20405;-92
2022/10/19 06:10:51;;;;;;;3.10;1.10;;;;;;;10.18;100.00;102504.50;4957245;28;20051;-92
2022/10/19 06:13:21;;;;;;;5.95;1.10;;;;;;;10.38;100.00;102499.13;4960774;28;20098;-91
2022/10/19 06:15:51;;;;;;;3.10;1.10;;;;;;;10.41;100.00;102482.50;4957733;28;20489;-92
2022/10/19 06:18:18;;;;;;;3.22;1.00;;;;;;;10.34;100.00;102483.44;4971413;28;20055;-90
2022/10/19 06:20:45;;;;;;;4.05;1.13;;;;;;;10.36;100.00;102477.34;4963560;28;20071;-91
2022/10/19 06:23:11;;;;;;;4.20;1.17;;;;;;;10.57;100.00;102496.34;4973073;28;20054;-91
2022/10/19 06:25:40;;;;;;;3.30;1.10;;;;;;;10.72;100.00;102516.28;4972106;28;20046;-90
2022/10/19 06:28:07;;;;;;;3.38;1.20;;;;;;;10.61;100.00;102509.41;4971956;28;20074;-91
2022/10/19 06:30:39;;;;;;;4.18;1.10;;;;;;;10.72;100.00;102511.06;4957801;28;20102;-91
2022/10/19 06:33:07;;;;;;;2.85;1.00;;;;;;;10.79;100.00;102497.00;4971501;28;20481;-91
2022/10/19 06:35:34;;;;;;;2.97;1.05;;;;;;;10.84;100.00;102510.94;4969002;28;20050;-92
2022/10/19 06:38:00;;;;;;;2.80;1.08;;;;;;;10.74;100.00;102478.69;4971688;28;20545;-91
2022/10/19 06:40:27;;;;;;;5.00;1.08;;;;;;;11.09;100.00;102519.41;4966593;28;20062;-90
2022/10/19 06:42:55;;;;;;;3.88;1.20;;;;;;;10.95;100.00;102511.69;4976064;28;20504;-90
2022/10/19 06:45:22;;;;;;;5.22;1.15;;;;;;;10.88;100.00;102490.81;4977111;28;20059;-88
2022/10/19 06:47:49;;;;;;;7.13;1.13;;;;;;;10.70;100.00;102489.25;4978718;28;20101;-88
2022/10/19 06:50:16;;;;;;;4.97;1.40;;;;;;;10.63;100.00;102494.53;4981315;28;20042;-91
2022/10/19 06:52:44;;;;;;;5.40;1.50;;;;;;;10.57;100.00;102475.38;4977659;28;20050;-90
2022/10/19 06:55:11;;;;;;;4.55;1.17;;;;;;;10.67;100.00;102477.03;4980610;28;20568;-89
2022/10/19 06:57:38;;;;;;;5.00;1.23;;;;;;;10.96;100.00;102529.16;4960619;28;20109;-90
2022/10/19 07:00:06;;;;;;;3.53;1.10;;;;;;;10.98;100.00;102501.16;4963373;28;20042;-89
2022/10/19 07:02:33;;;;;;;3.78;1.00;;;;;;;11.06;100.00;102503.69;4962263;28;20293;-90
2022/10/19 07:05:00;;;;;;;6.07;1.08;;;;;;;10.78;100.00;102488.28;4975386;28;20660;-90
2022/10/19 07:07:35;;;;;;;4.32;1.10;;;;;;;10.79;100.00;102476.03;4975617;28;20537;-91
2022/10/19 07:10:07;;;;;;;2.15;0.77;;;;;;;10.58;100.00;102445.69;4951415;28;20134;-93
2022/10/19 07:12:34;;;;;;;2.08;0.90;;;;;;;10.79;100.00;102466.44;4970909;28;20050;-92
2022/10/19 07:15:05;;;;;;;8.77;2.53;;;;;;;11.01;100.00;102514.25;4966545;28;20051;-91
2022/10/19 07:17:32;;;;;;;4.28;1.10;;;;;;;10.68;100.00;102460.44;4958103;28;20047;-90
2022/10/19 07:20:00;;;;;;;4.32;1.17;;;;;;;10.98;100.00;102498.53;4963939;28;20049;-92
2022/10/19 07:22:27;;;;;;;3.53;1.00;;;;;;;10.72;100.00;102466.53;4959189;28;20053;-91
2022/10/19 07:24:54;;;;;;;3.42;1.02;;;;;;;10.94;100.00;102467.13;4961065;28;20449;-90
2022/10/19 07:27:21;;;;;;;9.45;1.73;;;;;;;11.07;100.00;102500.19;4967607;28;20591;-88
2022/10/19 07:29:49;;;;;;;3.97;1.25;;;;;;;11.10;100.00;102509.75;4975799;28;20066;-90
2022/10/19 07:32:15;;;;;;;2.25;1.08;;;;;;;11.04;100.00;102491.50;4966120;28;20051;-91
2022/10/19 07:34:42;;;;;;;4.75;1.05;;;;;;;11.01;100.00;102485.41;4966141;28;20055;-89
2022/10/19 07:37:12;;;;;;;8.82;1.92;;;;;;;10.84;100.00;102445.44;4960779;28;20138;-91
2022/10/19 07:39:40;;;;;;;2.33;0.90;;;;;;;10.85;100.00;102449.75;4977398;28;20047;-90
2022/10/19 07:42:07;;;;;;;4.55;1.27;;;;;;;10.78;100.00;102425.41;4978055;28;20121;-89
2022/10/19 07:44:34;;;;;;;6.45;1.20;;;;;;;11.18;100.00;102495.69;4960737;28;20757;-89
2022/10/19 07:47:00;;;;;;;4.65;1.20;;;;;;;11.34;100.00;102524.34;4975534;28;20061;-91
2022/10/19 07:49:27;;;;;;;4.00;1.20;;;;;;;11.20;100.00;102483.41;4977954;28;20516;-90
2022/10/19 07:51:55;;;;;;;7.45;1.33;;;;;;;11.19;100.00;102528.91;4966492;28;20059;-91
2022/10/19 07:54:23;;;;;;;6.65;1.60;;;;;;;11.10;100.00;102492.31;4977966;28;20054;-91
2022/10/19 07:56:50;;;;;;;5.15;1.33;;;;;;;11.22;100.00;102535.84;4962297;28;20133;-90
2022/10/19 07:59:17;;;;;;;7.05;1.40;;;;;;;10.80;100.00;102465.56;4968373;28;20065;-92
2022/10/19 08:01:47;;;;;;;3.70;1.05;;;;;;;10.59;100.00;102424.72;4962969;28;20051;-92
2022/10/19 08:04:19;;;;;;;4.18;1.15;;;;;;;10.29;100.00;102381.38;4978022;28;20626;-92
2022/10/19 08:07:05;;;;;;;9.70;1.30;;;;;;;10.81;100.00;102443.69;4977854;28;20057;-91
2022/10/19 08:09:32;;;;;;;3.55;1.10;;;;;;;10.82;100.00;102423.63;4973900;28;20046;-92
2022/10/19 08:12:18;;;;;;;5.03;1.58;;;;;;;11.02;100.00;102450.44;4982334;28;20057;-90
2022/10/19 08:14:46;;;;;;;5.40;1.40;;;;;;;11.04;100.00;102509.84;4972931;28;20062;-92
2022/10/19 08:17:16;;;;;;;4.50;1.30;;;;;;;10.74;100.00;102409.72;4972348;28;20070;-92
2022/10/19 08:19:44;;;;;;;5.82;1.27;;;;;;;11.19;100.00;102451.97;4981863;28;20043;-90
2022/10/19 08:22:14;;;;;;;8.18;1.85;;;;;;;11.05;100.00;102428.56;4966705;28;20106;-91
2022/10/19 08:24:41;;;;;;;5.32;1.42;;;;;;;10.91;100.00;102448.84;4977232;28;20070;-90
2022/10/19 08:27:13;;;;;;;5.45;1.35;;;;;;;10.94;100.00;102452.31;4975778;28;20056;-92
2022/10/19 08:29:41;;;;;;;5.47;1.10;;;;;;;11.17;100.00;102456.38;4987881;28;20071;-91
2022/10/19 08:32:09;;;;;;;6.47;1.65;;;;;;;11.23;100.00;102464.19;4970119;28;20085;-90
2022/10/19 08:34:38;;;;;;;5.60;1.40;;;;;;;10.96;100.00;102433.91;4976216;28;20051;-91
2022/10/19 08:37:07;;;;;;;4.78;1.30;;;;;;;11.13;100.00;102452.06;4957767;28;20046;-92
2022/10/19 08:39:58;;;;;;;4.70;1.20;;;;;;;10.53;100.00;102367.16;4983783;28;20050;-92
2022/10/19 08:42:42;;;;;;;3.97;1.23;;;;;;;10.98;100.00;102467.09;4982678;28;20071;-91
2022/10/19 08:45:28;;;;;;;5.53;1.30;;;;;;;11.62;100.00;102500.41;4968499;28;20066;-91
2022/10/19 08:48:12;;;;;;;4.53;1.40;;;;;;;11.23;100.00;102479.91;4965808;28;20077;-91
2022/10/19 08:50:43;;;;;;;5.78;1.17;;;;;;;11.12;100.00;102466.94;4974011;28;20051;-92
2022/10/19 08:53:26;;;;;;;3.90;1.10;;;;;;;10.80;100.00;102420.13;4986143;28;20054;-95
2022/10/19 08:55:54;;;;;;;5.05;1.17;;;;;;;11.51;100.00;102511.00;4966118;28;20047;-91
2022/10/19 08:58:42;;;;;;;7.40;1.48;;;;;;;11.04;100.00;102449.56;4962408;29;20122;-90
2022/10/19 09:01:49;;;;;;;4.95;1.27;;;;;;;11.30;100.00;102493.81;4971177;28;20058;-91
2022/10/19 09:04:27;;;;;;;8.65;1.85;;;;;;;11.47;100.00;102504.94;4980411;28;20489;-92
2022/10/19 09:07:19;;;;;;;8.35;1.98;;;;;;;11.32;100.00;102478.94;4982101;28;20291;-92
2022/10/19 09:09:53;;;;;;;2.70;1.00;;;;;;;11.38;100.00;102478.84;4949579;28;20063;-90
2022/10/19 09:12:50;;;;;;;6.40;1.40;;;;;;;11.55;100.00;102473.38;4963351;28;20054;-90
2022/10/19 09:15:32;;;;;;;6.00;1.30;;;;;;;11.07;100.00;102403.22;4960930;28;20115;-90
2022/10/19 09:18:01;;;;;;;10.40;1.30;;;;;;;11.39;100.00;102467.47;4979477;28;20414;-91
2022/10/19 09:20:37;;;;;;;5.78;1.30;;;;;;;10.92;100.00;102367.56;4977816;28;20047;-91
2022/10/19 09:23:47;;;;;;;6.10;1.63;;;;;;;11.65;100.00;102477.59;4963765;28;20062;-91
2022/10/19 09:26:16;;;;;;;5.43;1.20;;;;;;;11.32;100.00;102444.84;4991684;28;20043;-91
2022/10/19 09:29:02;;;;;;;6.55;1.33;;;;;;;10.98;100.00;102351.78;4976267;28;20055;-90
2022/10/19 09:31:36;;;;;;;4.15;1.42;;;;;;;11.55;100.00;102484.72;4980538;28;20043;-93
2022/10/19 09:34:27;;;;;;;8.45;1.73;;;;;;;11.53;100.00;102477.78;4975645;28;20055;-90
2022/10/19 09:36:59;;;;;;;4.72;1.75;;;;;;;11.49;100.00;102429.75;4969183;28;20057;-90
2022/10/19 09:39:30;;;;;;;7.88;1.52;;;;;;;11.49;100.00;102440.22;4990470;28;20054;-86
2022/10/19 09:42:04;;;;;;;6.88;1.48;;;;;;;11.74;100.00;102461.72;4956475;28;20100;-92
2022/10/19 09:44:35;;;;;;;8.93;1.80;;;;;;;11.50;100.00;102454.19;4977006;28;20140;-89
2022/10/19 09:47:32;;;;;;;6.22;1.30;;;;;;;11.10;100.00;102365.59;4980094;28;20063;-91
2022/10/19 09:50:24;;;;;;;7.82;1.42;;;;;;;11.18;100.00;102437.16;4978677;28;20062;-91
2022/10/19 09:53:20;;;;;;;7.10;2.03;;;;;;;11.69;100.00;102446.94;4958330;28;20464;-91
2022/10/19 09:55:56;;;;;;;4.40;1.02;;;;;;;11.47;100.00;102417.50;4962810;28;20058;-92
2022/10/19 09:58:29;;;;;;;8.80;2.35;;;;;;;11.52;100.00;102427.03;4981960;28;20070;-91
2022/10/19 10:01:00;;;;;;;5.78;1.40;;;;;;;11.80;100.00;102417.91;4977456;28;20050;-91
2022/10/19 10:03:29;;;;;;;5.70;1.23;;;;;;;12.14;100.00;102450.59;4973938;28;20059;-92
2022/10/19 10:06:11;;;;;;;9.55;1.38;;;;;;;12.05;100.00;102427.13;4961836;28;20149;-87
2022/10/19 10:08:56;;;;;;;9.20;1.55;;;;;;;11.95;100.00;102417.66;4969427;28;20082;-92
2022/10/19 10:11:29;;;;;;;5.03;1.40;;;;;;;11.68;100.00;102351.59;4966861;28;20055;-91
2022/10/19 10:13:59;;;;;;;9.55;1.77;;;;;;;11.67;100.00;102365.63;4968670;28;20059;-91
2022/10/19 10:16:31;;;;;;;;;;;;;;;12.15;100.00;102447.09;4964405;28;20087;-91
2022/10/19 10:19:07;;;;;;;8.27;1.40;;;;;;;12.01;100.00;102446.47;4950816;28;19922;-89
2022/10/19 10:21:54;;;;;;;8.57;1.50;;;;;;;11.68;100.00;102400.59;4967533;28;20381;-91
2022/10/19 10:24:23;;;;;;;7.45;1.45;;;;;;;11.78;100.00;102431.06;4976778;28;20117;-91
2022/10/19 10:26:59;;;;;;;5.90;1.30;;;;;;;11.40;100.00;102344.19;4963071;28;20113;-91
2022/10/19 10:29:34;;;;;;;5.57;1.25;;;;;;;11.93;100.00;102435.22;4977418;28;20109;-92
2022/10/19 10:32:20;;;;;;;7.40;1.83;;;;;;;11.62;100.00;102383.19;4985031;28;20050;-90
2022/10/19 10:34:47;;;;;;;8.38;1.30;;;;;;;11.92;100.00;102426.47;4981731;28;20062;-88
2022/10/19 10:37:22;;;;;;;10.63;1.88;;;;;;;11.74;100.00;102390.88;4958108;28;20046;-90
2022/10/19 10:39:55;;;;;;;7.18;1.92;;;;;;;11.85;100.00;102403.81;4952637;29;20425;-91
2022/10/19 10:42:39;;;;;;;11.98;1.90;;;;;;;12.07;100.00;102427.97;4974793;28;20050;-91
2022/10/19 10:45:16;;;;;;;7.15;2.20;;;;;;;11.62;100.00;102370.06;4946180;28;20411;-90
2022/10/19 10:47:47;;;;;;;7.38;1.85;;;;;;;11.68;100.00;102380.47;4966154;28;20056;-91
2022/10/19 10:50:23;;;;;;;7.30;1.98;;;;;;;11.99;100.00;102402.72;4961959;28;20057;-91
2022/10/19 10:53:05;;;;;;;7.07;1.50;;;;;;;12.15;100.00;102438.38;4959560;28;20051;-90
2022/10/19 10:55:33;;;;;;;6.22;1.52;;;;;;;11.90;100.00;102398.50;4968498;28;20051;-90
2022/10/19 10:58:30;;;;;;;6.38;1.65;;;;;;;12.19;100.00;102394.53;4974997;28;20054;-90
2022/10/19 11:01:02;;;;;;;3.78;1.40;;;;;;;12.20;100.00;102377.88;4985339;28;20043;-89
2022/10/19 11:03:42;;;;;;;7.20;1.83;;;;;;;12.15;100.00;102370.09;4978661;28;20626;-89
2022/10/19 11:06:11;;;;;;;7.35;1.30;;;;;;;11.85;100.00;102351.31;4991771;28;20057;-90
2022/10/19 11:08:50;;;;;;;7.80;1.50;;;;;;;12.33;100.00;102437.16;4987514;28;20400;-90
2022/10/19 11:11:29;;;;;;;5.30;1.30;;;;;;;12.02;100.00;102386.94;4949331;29;20047;-92
2022/10/19 11:14:24;;;;;;;10.70;1.98;;;;;;;12.34;100.00;102433.63;4967898;28;20109;-89
2022/10/19 11:16:52;;;;;;;10.48;1.77;;;;;;;12.34;100.00;102434.53;4970425;28;20497;-90
2022/10/19 11:19:25;;;;;;;5.05;1.20;;;;;;;12.43;100.00;102408.97;4959006;28;20051;-89
2022/10/19 11:22:09;;;;;;;12.18;2.00;;;;;;;12.11;100.00;102420.91;4960057;28;20073;-90
2022/10/19 11:24:50;;;;;;;10.05;2.17;;;;;;;12.20;100.00;102431.28;4976512;28;20450;-90
2022/10/19 11:27:32;;;;;;;7.28;1.77;;;;;;;12.29;100.00;102425.84;4958882;28;20051;-90
2022/10/19 11:30:16;;;;;;;8.25;1.48;;;;;;;12.52;100.00;102424.56;4971886;28;20061;-91
2022/10/19 11:32:58;;;;;;;7.80;1.60;;;;;;;12.47;100.00;102414.13;4971740;28;20077;-89
2022/10/19 11:35:54;;;;;;;8.63;2.03;;;;;;;12.30;100.00;102414.44;4969872;28;20046;-90
2022/10/19 11:38:48;;;;;;;9.57;1.55;;;;;;;12.54;100.00;102397.38;4961724;28;20070;-90
2022/10/19 11:41:36;;;;;;;8.85;1.70;;;;;;;12.53;100.00;102389.50;4973949;28;20047;-89
2022/10/19 11:44:15;;;;;;;8.30;2.13;;;;;;;12.48;100.00;102399.22;4978452;28;20066;-90
2022/10/19 11:47:05;;;;;;;4.65;1.50;;;;;;;12.49;100.00;102387.84;4962794;28;20113;-90
2022/10/19 11:49:58;;;;;;;9.85;2.20;;;;;;;12.67;100.00;102389.25;4952337;28;20134;-90